Pagrindinis puslapis
METAR-TAF:

METAR-TAF

Oro uostai :

Kamranio oro uostas

Kamranis, Vietnamas

platuma: 11-59-53N, ilguma: 109-13-10E, Aukštis: 12 m

Dabartinis oras

Ataskaita buvo paskelbta 15 minutes, ne 04:00 UTC
Vėjas 11 kt iš Pietų/Pietryčių
Temperatūra 36°C
Drėgmė 57%
Slėgis 1013 hPa
Matomumas 10 km arba daugiau
Mažai debesys ne aukštis 1500 ft

METAR: VVCR 310400Z 15011KT 9999 FEW015 36/26 Q1013 NOSIG

Laikas: 11:15 (04:15 UTC)

Prognozė

Ataskaita buvo paskelbta 5 valandos ir 15 minutes, ne 23:00 UTC
Prognozė galioja nuo 31 metu 00 UTC su 31 metu 24 UTC
Vėjas 4 kt iš Šiaurės Vakarų
Matomumas 10 km arba daugiau
Mažai debesys ne aukštis 1500 ft
Tapsmas
nuo 31 metu 02 UTC su 31 metu 03 UTC
Vėjas 12 kt iš Rytų/Pietryčių

TAF: VVCR 302300Z 3100/3124 31004KT 9999 FEW015 BECMG 3102/3103 12012KT

Orai ataskaitas ir orų prognozės (METAR, TAF).

turimą stotys yra geltonos ir raudonos taškus žemėlapyje.

Perkelti pele per norėdami pamatyti stoties vardą.

Tada spustelėkite, norėdami matyti oro stebėjimo ir prognozės.

Norėdami pakeisti žemėlapį: spustelėkite ant žalios mygtukų su juodo kryžiaus žemyn,; žalią mygtuką su brūkšneliu, jei norite nutolinti; arba žalių rodyklių gretimoms žemėlapius.


METAR-TAF: